Time;durP1;ratioP1;P1;durP2;ratioP2;P2;SDS_P1;SDS_P2;PMS_P1;PMS_P2;Temp;Humidity;BMP_temperature;BMP_pressure;BME280_temperature;BME280_humidity;BME280_pressure;Samples;Min_cycle;Max_cycle;Signal;HPM_P1;HPM_P2
2023/09/26 00:00:08;;;;;;;4.73;4.40;;;;;;;;;;6212669;23;21228;-66
2023/09/26 00:02:37;;;;;;;6.03;4.57;;;;;;;;;;6211648;23;20930;-66
2023/09/26 00:05:08;;;;;;;10.73;6.00;;;;;;;;;;6186128;23;20625;-66
2023/09/26 00:07:38;;;;;;;5.13;4.63;;;;;;;;;;6213651;23;20581;-66
2023/09/26 00:10:07;;;;;;;5.60;5.07;;;;;;;;;;6213264;23;20633;-66
2023/09/26 00:12:35;;;;;;;6.00;5.30;;;;;;;;;;6212311;23;20698;-67
2023/09/26 00:15:04;;;;;;;5.13;4.63;;;;;;;;;;6213764;23;20664;-65
2023/09/26 00:17:32;;;;;;;4.93;4.57;;;;;;;;;;6213987;23;21218;-65
2023/09/26 00:20:00;;;;;;;7.75;4.65;;;;;;;;;;6213800;23;20961;-65
2023/09/26 00:22:30;;;;;;;4.60;4.20;;;;;;;;;;6213869;23;20220;-65
2023/09/26 00:24:58;;;;;;;4.93;4.53;;;;;;;;;;6213110;23;20991;-66
2023/09/26 00:27:27;;;;;;;5.73;4.73;;;;;;;;;;6213556;23;20606;-67
2023/09/26 00:29:55;;;;;;;4.93;4.43;;;;;;;;;;6212525;23;21181;-65
2023/09/26 00:32:24;;;;;;;5.27;3.93;;;;;;;;;;6212787;23;20666;-66
2023/09/26 00:34:53;;;;;;;5.20;4.23;;;;;;;;;;6160734;23;21166;-66
2023/09/26 00:37:21;;;;;;;5.25;4.78;;;;;;;;;;6213594;23;20702;-66
2023/09/26 00:39:51;;;;;;;4.22;4.00;;;;;;;;;;6185779;23;20251;-66
2023/09/26 00:42:19;;;;;;;6.05;4.65;;;;;;;;;;6213339;23;20256;-65
2023/09/26 00:44:47;;;;;;;3.65;3.45;;;;;;;;;;6212656;23;20251;-67
2023/09/26 00:47:16;;;;;;;5.30;4.90;;;;;;;;;;6212260;23;20274;-65
2023/09/26 00:49:44;;;;;;;5.53;4.80;;;;;;;;;;6213229;23;20263;-67
2023/09/26 00:52:13;;;;;;;5.55;5.10;;;;;;;;;;6213516;23;20892;-66
2023/09/26 00:54:42;;;;;;;5.28;4.88;;;;;;;;;;6212455;23;20251;-66
2023/09/26 00:57:12;;;;;;;4.53;4.22;;;;;;;;;;6186885;23;20275;-65
2023/09/26 00:59:40;;;;;;;5.22;4.72;;;;;;;;;;6212960;23;20634;-65
2023/09/26 01:02:10;;;;;;;5.45;4.80;;;;;;;;;;6212676;23;20259;-66
2023/09/26 01:04:39;;;;;;;5.07;4.68;;;;;;;;;;6212481;23;20326;-65
2023/09/26 01:07:08;;;;;;;7.97;4.50;;;;;;;;;;6189083;23;20247;-65
2023/09/26 01:09:36;;;;;;;4.68;4.38;;;;;;;;;;6214714;23;20310;-66
2023/09/26 01:12:05;;;;;;;7.72;5.00;;;;;;;;;;6214560;23;20708;-67
2023/09/26 01:14:34;;;;;;;8.85;5.40;;;;;;;;;;6214590;23;20255;-66
2023/09/26 01:17:03;;;;;;;4.80;4.40;;;;;;;;;;6214489;23;20275;-65
2023/09/26 01:19:32;;;;;;;5.90;5.00;;;;;;;;;;6214863;23;20248;-67
2023/09/26 01:22:00;;;;;;;5.70;5.20;;;;;;;;;;6215563;23;20311;-66
2023/09/26 01:24:30;;;;;;;5.40;4.97;;;;;;;;;;6214070;23;20693;-65
2023/09/26 01:26:58;;;;;;;5.93;5.43;;;;;;;;;;6214266;23;20259;-65
2023/09/26 01:29:26;;;;;;;5.05;4.65;;;;;;;;;;6214166;23;20322;-65
2023/09/26 01:31:54;;;;;;;5.55;5.15;;;;;;;;;;6213924;23;20279;-66
2023/09/26 01:34:23;;;;;;;5.63;5.15;;;;;;;;;;6188522;23;20252;-65
2023/09/26 01:36:51;;;;;;;5.45;5.05;;;;;;;;;;6213668;23;20697;-65
2023/09/26 01:39:19;;;;;;;5.47;5.05;;;;;;;;;;6214361;23;20263;-66
2023/09/26 01:41:49;;;;;;;6.20;5.28;;;;;;;;;;6187979;23;20562;-65
2023/09/26 01:44:17;;;;;;;5.40;4.82;;;;;;;;;;6214506;23;20692;-65
2023/09/26 01:46:45;;;;;;;5.38;4.97;;;;;;;;;;6214631;23;20677;-66
2023/09/26 01:49:14;;;;;;;5.03;4.53;;;;;;;;;;6214796;23;20283;-65
2023/09/26 01:51:42;;;;;;;5.45;5.05;;;;;;;;;;6214225;23;20247;-66
2023/09/26 01:54:10;;;;;;;5.20;4.70;;;;;;;;;;6214489;23;20253;-66
2023/09/26 01:56:38;;;;;;;4.88;4.45;;;;;;;;;;6214257;23;20698;-66
2023/09/26 01:59:08;;;;;;;5.45;5.00;;;;;;;;;;6188264;23;20326;-66
2023/09/26 02:01:36;;;;;;;5.47;4.97;;;;;;;;;;6187828;23;20244;-66
2023/09/26 02:04:05;;;;;;;4.68;4.38;;;;;;;;;;6213688;23;20255;-67
2023/09/26 02:06:33;;;;;;;9.00;5.07;;;;;;;;;;6214669;23;20356;-66
2023/09/26 02:09:01;;;;;;;5.78;5.38;;;;;;;;;;6186993;23;20260;-65
2023/09/26 02:11:31;;;;;;;5.68;5.28;;;;;;;;;;6214480;23;20314;-67
2023/09/26 02:13:59;;;;;;;5.53;4.60;;;;;;;;;;6157437;23;20252;-66
2023/09/26 02:16:28;;;;;;;5.82;5.35;;;;;;;;;;6183957;23;20256;-66
2023/09/26 02:18:57;;;;;;;6.10;5.10;;;;;;;;;;6183641;23;20280;-65
2023/09/26 02:21:25;;;;;;;6.25;5.75;;;;;;;;;;6157995;23;20260;-66
2023/09/26 02:23:53;;;;;;;6.03;5.55;;;;;;;;;;6132745;23;20248;-65
2023/09/26 02:26:21;;;;;;;6.05;5.55;;;;;;;;;;6158468;23;20248;-65
2023/09/26 02:28:49;;;;;;;6.03;5.43;;;;;;;;;;6182597;23;20271;-65
2023/09/26 02:31:18;;;;;;;8.88;5.43;;;;;;;;;;6184090;23;20252;-65
2023/09/26 02:33:47;;;;;;;6.22;5.75;;;;;;;;;;6183719;23;20253;-66
2023/09/26 02:36:16;;;;;;;5.72;5.22;;;;;;;;;;6158266;23;20248;-66
2023/09/26 02:38:44;;;;;;;5.03;4.63;;;;;;;;;;6183400;23;20253;-65
2023/09/26 02:41:13;;;;;;;6.88;5.70;;;;;;;;;;6183606;23;20256;-65
2023/09/26 02:43:41;;;;;;;5.57;5.15;;;;;;;;;;6183670;23;20257;-65
2023/09/26 02:46:09;;;;;;;6.63;5.65;;;;;;;;;;6157260;23;20508;-66
2023/09/26 02:48:39;;;;;;;5.10;4.60;;;;;;;;;;6157679;23;20260;-65
2023/09/26 02:51:09;;;;;;;5.70;5.30;;;;;;;;;;6183348;23;20572;-66
2023/09/26 02:53:37;;;;;;;5.38;4.88;;;;;;;;;;6183591;23;20252;-65
2023/09/26 02:56:10;;;;;;;6.53;5.93;;;;;;;;;;6183424;23;20276;-66
2023/09/26 02:58:38;;;;;;;5.82;5.32;;;;;;;;;;6184512;23;20303;-65
2023/09/26 03:01:06;;;;;;;7.45;5.85;;;;;;;;;;6156713;23;20256;-65
2023/09/26 03:03:35;;;;;;;6.55;5.80;;;;;;;;;;6156284;23;20256;-65
2023/09/26 03:06:03;;;;;;;6.30;5.80;;;;;;;;;;6182971;23;20184;-65
2023/09/26 03:08:33;;;;;;;6.00;5.50;;;;;;;;;;6184262;23;20560;-65
2023/09/26 03:11:02;;;;;;;7.30;5.70;;;;;;;;;;6132191;23;20253;-65
2023/09/26 03:13:33;;;;;;;7.63;6.93;;;;;;;;;;6207509;23;20582;-65
2023/09/26 03:16:01;;;;;;;6.90;6.20;;;;;;;;;;6213541;23;20248;-65
2023/09/26 03:18:30;;;;;;;11.48;7.47;;;;;;;;;;6214357;23;20272;-65
2023/09/26 03:20:58;;;;;;;7.45;6.72;;;;;;;;;;6212758;23;20252;-65
2023/09/26 03:23:26;;;;;;;7.03;6.43;;;;;;;;;;6213909;23;20251;-65
2023/09/26 03:25:56;;;;;;;6.65;6.15;;;;;;;;;;6213050;23;20269;-65
2023/09/26 03:28:24;;;;;;;7.40;6.70;;;;;;;;;;6213831;23;20251;-66
2023/09/26 03:30:52;;;;;;;12.25;7.07;;;;;;;;;;6213306;23;20250;-65
2023/09/26 03:33:21;;;;;;;10.60;6.68;;;;;;;;;;6212523;23;20605;-65
2023/09/26 03:35:49;;;;;;;6.05;5.55;;;;;;;;;;6212832;23;20259;-65
2023/09/26 03:38:19;;;;;;;6.07;5.57;;;;;;;;;;6212801;23;20725;-65
2023/09/26 03:40:47;;;;;;;7.85;5.57;;;;;;;;;;6213408;23;20251;-65
2023/09/26 03:43:17;;;;;;;4.93;4.50;;;;;;;;;;6213611;23;20251;-65
2023/09/26 03:45:45;;;;;;;6.30;5.80;;;;;;;;;;6213512;23;20642;-66
2023/09/26 03:48:13;;;;;;;6.05;5.60;;;;;;;;;;6213384;23;20251;-65
2023/09/26 03:50:42;;;;;;;6.25;5.75;;;;;;;;;;6213564;23;20276;-65
2023/09/26 03:53:10;;;;;;;6.60;6.10;;;;;;;;;;6187054;23;20255;-65
2023/09/26 03:55:38;;;;;;;5.55;5.05;;;;;;;;;;6213601;23;20255;-65
2023/09/26 03:58:07;;;;;;;6.78;6.10;;;;;;;;;;6186838;23;20255;-65
2023/09/26 04:00:36;;;;;;;6.78;6.20;;;;;;;;;;6213785;23;20255;-66
2023/09/26 04:03:05;;;;;;;8.43;6.97;;;;;;;;;;6185900;23;20263;-67
2023/09/26 04:05:33;;;;;;;6.10;5.50;;;;;;;;;;6212941;23;20248;-65
2023/09/26 04:08:01;;;;;;;7.50;6.80;;;;;;;;;;6213197;23;20252;-66
2023/09/26 04:10:29;;;;;;;6.40;5.90;;;;;;;;;;6214074;23;20299;-65
2023/09/26 04:12:57;;;;;;;9.68;5.82;;;;;;;;;;6212314;23;20279;-65
2023/09/26 04:15:26;;;;;;;7.10;6.50;;;;;;;;;;6213062;23;20607;-66
2023/09/26 04:17:55;;;;;;;6.55;5.90;;;;;;;;;;6211720;23;20256;-65
2023/09/26 04:20:24;;;;;;;5.90;5.50;;;;;;;;;;6212425;23;20193;-65
2023/09/26 04:22:52;;;;;;;7.07;6.57;;;;;;;;;;6212805;23;20307;-64
2023/09/26 04:25:21;;;;;;;7.05;6.00;;;;;;;;;;6213317;23;20568;-66
2023/09/26 04:27:49;;;;;;;10.40;5.88;;;;;;;;;;6186388;23;20255;-66
2023/09/26 04:30:17;;;;;;;6.20;5.60;;;;;;;;;;6212288;23;20216;-66
2023/09/26 04:32:45;;;;;;;5.10;4.80;;;;;;;;;;6212784;23;20176;-66
2023/09/26 04:35:15;;;;;;;6.18;5.10;;;;;;;;;;6213477;23;20568;-66
2023/09/26 04:37:43;;;;;;;6.35;5.50;;;;;;;;;;6213061;23;20256;-66
2023/09/26 04:40:12;;;;;;;6.68;5.50;;;;;;;;;;6212789;23;20267;-66
2023/09/26 04:42:41;;;;;;;5.35;4.95;;;;;;;;;;6186468;23;20247;-66
2023/09/26 04:45:10;;;;;;;4.75;4.35;;;;;;;;;;6212495;23;20684;-66
2023/09/26 04:47:38;;;;;;;6.00;4.68;;;;;;;;;;6212108;23;20248;-66
2023/09/26 04:50:07;;;;;;;5.63;5.13;;;;;;;;;;6211450;23;20251;-66
2023/09/26 04:52:37;;;;;;;5.40;4.90;;;;;;;;;;6213423;23;20302;-66
2023/09/26 04:55:06;;;;;;;7.57;5.43;;;;;;;;;;6211987;23;20697;-66
2023/09/26 04:57:34;;;;;;;5.82;5.32;;;;;;;;;;6213036;23;20248;-67
2023/09/26 05:00:08;;;;;;;5.78;5.38;;;;;;;;;;6211308;23;20399;-66
2023/09/26 05:02:36;;;;;;;6.32;5.25;;;;;;;;;;6185773;23;20650;-65
2023/09/26 05:05:04;;;;;;;5.32;4.93;;;;;;;;;;6211357;23;20275;-67
2023/09/26 05:07:32;;;;;;;5.82;5.28;;;;;;;;;;6212975;23;20264;-66
2023/09/26 05:10:03;;;;;;;6.80;6.13;;;;;;;;;;6211815;23;20225;-66
2023/09/26 05:12:31;;;;;;;5.35;4.70;;;;;;;;;;6211895;23;20724;-67
2023/09/26 05:14:59;;;;;;;4.25;3.85;;;;;;;;;;6211124;23;20699;-65
2023/09/26 05:17:27;;;;;;;5.28;4.93;;;;;;;;;;6212650;23;20251;-66
2023/09/26 05:19:56;;;;;;;7.10;4.70;;;;;;;;;;6212068;23;20781;-65
2023/09/26 05:22:24;;;;;;;6.20;4.93;;;;;;;;;;6213348;23;21392;-66
2023/09/26 05:24:52;;;;;;;5.65;5.15;;;;;;;;;;6211914;23;20255;-66
2023/09/26 05:27:22;;;;;;;5.38;4.93;;;;;;;;;;6212777;23;20282;-65
2023/09/26 05:29:50;;;;;;;5.60;5.20;;;;;;;;;;6212255;23;20251;-66
2023/09/26 05:32:19;;;;;;;4.95;4.53;;;;;;;;;;6213544;23;20180;-65
2023/09/26 05:34:47;;;;;;;6.75;5.35;;;;;;;;;;6212891;23;20255;-67
2023/09/26 05:37:15;;;;;;;5.22;4.82;;;;;;;;;;6212734;23;20624;-66
2023/09/26 05:39:43;;;;;;;8.65;5.80;;;;;;;;;;6212270;23;20649;-66
2023/09/26 05:42:11;;;;;;;5.95;5.38;;;;;;;;;;6212291;23;20546;-66
2023/09/26 05:44:41;;;;;;;7.30;5.57;;;;;;;;;;6211932;23;20304;-65
2023/09/26 05:47:09;;;;;;;6.72;6.13;;;;;;;;;;6212093;23;20825;-66
2023/09/26 05:49:38;;;;;;;5.97;5.38;;;;;;;;;;6212853;23;20248;-66
2023/09/26 05:52:06;;;;;;;8.25;6.20;;;;;;;;;;6213888;23;20255;-66
2023/09/26 05:54:34;;;;;;;5.70;5.20;;;;;;;;;;6214677;23;20252;-66
2023/09/26 05:57:03;;;;;;;6.63;6.03;;;;;;;;;;6214722;23;20252;-67
2023/09/26 05:59:31;;;;;;;6.80;6.20;;;;;;;;;;6212519;23;20798;-68
2023/09/26 06:02:01;;;;;;;6.60;6.00;;;;;;;;;;6212868;23;20662;-67
2023/09/26 06:04:29;;;;;;;6.22;5.63;;;;;;;;;;6213176;23;20255;-67
2023/09/26 06:06:57;;;;;;;9.05;6.50;;;;;;;;;;6214307;23;20677;-67
2023/09/26 06:09:26;;;;;;;7.00;6.40;;;;;;;;;;6214352;23;20243;-67
2023/09/26 06:11:54;;;;;;;12.05;6.53;;;;;;;;;;6214326;23;20284;-67
2023/09/26 06:14:22;;;;;;;7.35;6.65;;;;;;;;;;6213787;23;20251;-67
2023/09/26 06:16:50;;;;;;;10.43;7.35;;;;;;;;;;6163557;23;20565;-67
2023/09/26 06:19:20;;;;;;;7.20;6.50;;;;;;;;;;6188183;23;20271;-67
2023/09/26 06:21:48;;;;;;;8.00;7.25;;;;;;;;;;6214230;23;20251;-67
2023/09/26 06:24:16;;;;;;;7.85;6.43;;;;;;;;;;6212438;23;20247;-67
2023/09/26 06:26:45;;;;;;;7.07;6.50;;;;;;;;;;6213273;23;20272;-66
2023/09/26 06:29:13;;;;;;;9.10;6.13;;;;;;;;;;6214043;23;20283;-67
2023/09/26 06:31:42;;;;;;;15.93;7.00;;;;;;;;;;6213255;23;20247;-66
2023/09/26 06:34:11;;;;;;;6.72;5.90;;;;;;;;;;6213947;23;20192;-66
2023/09/26 06:36:41;;;;;;;7.25;6.53;;;;;;;;;;6186397;23;20255;-66
2023/09/26 06:39:11;;;;;;;12.57;8.23;;;;;;;;;;6213304;23;20259;-66
2023/09/26 06:41:39;;;;;;;13.20;5.60;;;;;;;;;;6187085;23;20243;-67
2023/09/26 06:44:09;;;;;;;7.25;6.35;;;;;;;;;;6212676;23;20312;-67
2023/09/26 06:46:38;;;;;;;10.02;7.22;;;;;;;;;;6213254;23;20689;-68
2023/09/26 06:49:06;;;;;;;10.30;7.38;;;;;;;;;;6187530;23;20247;-68
2023/09/26 06:51:34;;;;;;;11.95;7.30;;;;;;;;;;6215161;23;20251;-68
2023/09/26 06:54:04;;;;;;;8.70;7.30;;;;;;;;;;6212533;23;20279;-67
2023/09/26 06:56:32;;;;;;;9.20;6.85;;;;;;;;;;6213734;23;20225;-66
2023/09/26 06:59:01;;;;;;;12.93;10.90;;;;;;;;;;6215227;23;20279;-67
2023/09/26 07:01:29;;;;;;;12.63;10.95;;;;;;;;;;6216393;23;20726;-67
2023/09/26 07:03:57;;;;;;;14.10;12.33;;;;;;;;;;6187995;23;20275;-68
2023/09/26 07:06:25;;;;;;;14.37;12.87;;;;;;;;;;6213245;23;21207;-67
2023/09/26 07:08:55;;;;;;;13.90;12.17;;;;;;;;;;6214641;23;20637;-67
2023/09/26 07:11:25;;;;;;;27.20;13.53;;;;;;;;;;6212232;23;20655;-67
2023/09/26 07:13:53;;;;;;;13.40;12.10;;;;;;;;;;6212559;23;20665;-67
2023/09/26 07:16:21;;;;;;;21.70;13.90;;;;;;;;;;6212745;23;20653;-67
2023/09/26 07:18:49;;;;;;;17.80;13.20;;;;;;;;;;6213556;23;20946;-67
2023/09/26 07:21:18;;;;;;;13.90;12.50;;;;;;;;;;6213025;23;20669;-67
2023/09/26 07:23:46;;;;;;;13.80;10.70;;;;;;;;;;6187257;23;20602;-67
2023/09/26 07:26:16;;;;;;;12.70;11.37;;;;;;;;;;6213385;23;20667;-66
2023/09/26 07:28:46;;;;;;;14.33;11.60;;;;;;;;;;6213421;23;21316;-67
2023/09/26 07:31:15;;;;;;;13.17;11.87;;;;;;;;;;6212363;23;20565;-67
2023/09/26 07:33:43;;;;;;;13.70;11.47;;;;;;;;;;6214062;23;20674;-66
2023/09/26 07:36:12;;;;;;;11.87;10.77;;;;;;;;;;6186736;23;20896;-66
2023/09/26 07:38:40;;;;;;;12.07;10.40;;;;;;;;;;6213072;23;20666;-66
2023/09/26 07:41:09;;;;;;;11.87;10.77;;;;;;;;;;6212858;23;20681;-68
2023/09/26 07:43:37;;;;;;;11.00;10.00;;;;;;;;;;6215666;23;20625;-67
2023/09/26 07:46:07;;;;;;;11.50;10.30;;;;;;;;;;6218514;23;20607;-69
2023/09/26 07:48:36;;;;;;;13.23;9.43;;;;;;;;;;6213690;23;20590;-68
2023/09/26 07:51:04;;;;;;;9.80;8.90;;;;;;;;;;6213714;23;20663;-68
2023/09/26 07:53:33;;;;;;;9.73;8.77;;;;;;;;;;6213885;23;20634;-68
2023/09/26 07:56:01;;;;;;;9.40;8.60;;;;;;;;;;6213801;23;20667;-67
2023/09/26 07:58:29;;;;;;;10.00;7.20;;;;;;;;;;6215986;23;20624;-67
2023/09/26 08:00:58;;;;;;;18.77;11.07;;;;;;;;;;6213288;23;20681;-68
2023/09/26 08:03:28;;;;;;;12.27;10.77;;;;;;;;;;6211686;23;20961;-68
2023/09/26 08:06:00;;;;;;;12.37;11.07;;;;;;;;;;6212787;23;20645;-68
2023/09/26 08:08:28;;;;;;;15.40;10.17;;;;;;;;;;6211633;23;20631;-68
2023/09/26 08:10:57;;;;;;;12.10;11.10;;;;;;;;;;6213058;23;20594;-67
2023/09/26 08:13:25;;;;;;;11.20;10.10;;;;;;;;;;6183568;23;20739;-68
2023/09/26 08:15:53;;;;;;;14.60;9.60;;;;;;;;;;6213111;23;20659;-67
2023/09/26 08:18:23;;;;;;;10.63;9.63;;;;;;;;;;6185299;23;21275;-67
2023/09/26 08:20:55;;;;;;;8.17;7.43;;;;;;;;;;6213394;23;20698;-68
2023/09/26 08:23:24;;;;;;;9.30;8.50;;;;;;;;;;6212309;23;20584;-68
2023/09/26 08:25:56;;;;;;;9.40;8.23;;;;;;;;;;6212760;23;20666;-67
2023/09/26 08:28:25;;;;;;;8.47;7.67;;;;;;;;;;6213262;23;20841;-68
2023/09/26 08:30:56;;;;;;;9.23;8.33;;;;;;;;;;6185960;23;20625;-67
2023/09/26 08:33:24;;;;;;;9.37;8.57;;;;;;;;;;6213626;23;20634;-67
2023/09/26 08:35:54;;;;;;;8.47;7.67;;;;;;;;;;6214214;23;20653;-67
2023/09/26 08:38:22;;;;;;;8.83;6.80;;;;;;;;;;6214442;23;20962;-67
2023/09/26 08:40:52;;;;;;;14.27;7.10;;;;;;;;;;6190415;23;20991;-67
2023/09/26 08:43:23;;;;;;;8.30;7.60;;;;;;;;;;6219212;23;20602;-67
2023/09/26 08:45:52;;;;;;;8.17;6.83;;;;;;;;;;6216454;23;20611;-67
2023/09/26 08:48:21;;;;;;;7.70;7.00;;;;;;;;;;6217308;23;20949;-67
2023/09/26 08:50:49;;;;;;;10.00;7.20;;;;;;;;;;6213466;23;20952;-67
2023/09/26 08:53:19;;;;;;;9.23;6.20;;;;;;;;;;6215784;23;20771;-67
2023/09/26 08:55:49;;;;;;;6.80;6.27;;;;;;;;;;6213958;23;20663;-67
2023/09/26 08:58:18;;;;;;;10.10;6.40;;;;;;;;;;6215336;23;20616;-67
2023/09/26 09:00:46;;;;;;;7.37;6.67;;;;;;;;;;6212810;23;20674;-68
2023/09/26 09:03:15;;;;;;;6.63;6.13;;;;;;;;;;6214647;23;20658;-68
2023/09/26 09:05:44;;;;;;;8.63;6.37;;;;;;;;;;6213221;23;20698;-66
2023/09/26 09:08:19;;;;;;;9.87;6.90;;;;;;;;;;6213726;23;20647;-67
2023/09/26 09:10:51;;;;;;;7.03;6.33;;;;;;;;;;6213705;23;21131;-67
2023/09/26 09:13:29;;;;;;;8.87;6.43;;;;;;;;;;6211255;23;20687;-67
2023/09/26 09:16:08;;;;;;;7.20;6.17;;;;;;;;;;6209490;23;20980;-68
2023/09/26 09:18:37;;;;;;;7.80;7.20;;;;;;;;;;6210724;23;20631;-67
2023/09/26 09:21:21;;;;;;;9.57;6.77;;;;;;;;;;6210069;23;20703;-66
2023/09/26 09:23:50;;;;;;;7.30;6.70;;;;;;;;;;6208477;23;20619;-65
2023/09/26 09:26:20;;;;;;;7.47;6.77;;;;;;;;;;6211136;23;20920;-66
2023/09/26 09:28:48;;;;;;;14.07;7.57;;;;;;;;;;6211403;23;20657;-66
2023/09/26 09:31:17;;;;;;;7.40;6.60;;;;;;;;;;6210634;23;20666;-65
2023/09/26 09:33:46;;;;;;;7.37;6.77;;;;;;;;;;6212080;23;20666;-66
2023/09/26 09:36:15;;;;;;;7.10;6.43;;;;;;;;;;6212083;23;20571;-66
2023/09/26 09:38:43;;;;;;;8.10;6.50;;;;;;;;;;6212436;23;20651;-65
2023/09/26 09:41:11;;;;;;;7.30;6.60;;;;;;;;;;6211429;23;20712;-66
2023/09/26 09:43:41;;;;;;;7.80;7.17;;;;;;;;;;6211345;23;20666;-65
2023/09/26 09:46:10;;;;;;;12.17;6.73;;;;;;;;;;6211707;23;20655;-66
2023/09/26 09:48:43;;;;;;;8.63;6.27;;;;;;;;;;6211547;23;20619;-66
2023/09/26 09:51:12;;;;;;;6.67;6.07;;;;;;;;;;6211500;23;20634;-66
2023/09/26 09:53:42;;;;;;;7.77;7.23;;;;;;;;;;6211914;23;20642;-66
2023/09/26 09:56:12;;;;;;;8.40;7.20;;;;;;;;;;6212658;23;20703;-66
2023/09/26 09:58:44;;;;;;;7.00;6.40;;;;;;;;;;6212988;23;20626;-66
2023/09/26 10:01:14;;;;;;;7.87;7.20;;;;;;;;;;6212095;23;20674;-66
2023/09/26 10:03:43;;;;;;;8.40;6.47;;;;;;;;;;6184315;23;20658;-65
2023/09/26 10:06:11;;;;;;;7.87;7.10;;;;;;;;;;6184600;23;20666;-65
2023/09/26 10:08:40;;;;;;;7.03;6.33;;;;;;;;;;6211603;23;20735;-67
2023/09/26 10:11:08;;;;;;;8.00;6.67;;;;;;;;;;6211636;23;21206;-67
2023/09/26 10:13:37;;;;;;;6.33;5.83;;;;;;;;;;6166175;23;1088069;-66
2023/09/26 10:16:14;;;;;;;7.23;6.73;;;;;;;;;;6213515;23;20965;-65
2023/09/26 10:18:43;;;;;;;7.27;6.77;;;;;;;;;;6213325;23;21174;-66
2023/09/26 10:21:20;;;;;;;7.13;6.63;;;;;;;;;;6187611;23;20694;-67
2023/09/26 10:24:07;;;;;;;6.63;6.23;;;;;;;;;;6213741;23;20682;-65
2023/09/26 10:26:38;;;;;;;7.03;6.43;;;;;;;;;;6214186;23;20634;-66
2023/09/26 10:29:06;;;;;;;7.20;6.70;;;;;;;;;;6213523;23;20622;-66
2023/09/26 10:31:36;;;;;;;8.43;7.73;;;;;;;;;;6212304;23;20666;-66
2023/09/26 10:34:05;;;;;;;7.90;7.33;;;;;;;;;;6213566;23;21009;-67
2023/09/26 10:36:35;;;;;;;9.73;8.17;;;;;;;;;;6212963;23;20664;-65
2023/09/26 10:39:05;;;;;;;7.70;7.10;;;;;;;;;;6214466;23;20651;-65
2023/09/26 10:41:34;;;;;;;8.70;7.90;;;;;;;;;;6213290;23;20675;-65
2023/09/26 10:44:04;;;;;;;8.87;8.20;;;;;;;;;;6213629;23;21210;-65
2023/09/26 10:46:32;;;;;;;12.63;8.67;;;;;;;;;;6187003;23;21049;-65
2023/09/26 10:49:02;;;;;;;8.93;8.27;;;;;;;;;;6213365;23;20662;-65
2023/09/26 10:51:31;;;;;;;9.07;8.37;;;;;;;;;;6186733;23;21185;-65
2023/09/26 10:53:59;;;;;;;9.73;8.93;;;;;;;;;;6213000;23;20817;-66
2023/09/26 10:56:27;;;;;;;10.37;9.77;;;;;;;;;;6213384;23;20662;-66
2023/09/26 10:58:56;;;;;;;12.33;11.43;;;;;;;;;;6213446;23;20663;-66
2023/09/26 11:01:38;;;;;;;13.10;12.40;;;;;;;;;;6212912;23;20667;-64
2023/09/26 11:04:08;;;;;;;14.90;13.83;;;;;;;;;;6210383;23;21127;-64
2023/09/26 11:06:37;;;;;;;16.40;15.50;;;;;;;;;;6212892;23;20615;-64
2023/09/26 11:09:07;;;;;;;16.90;15.97;;;;;;;;;;6212818;23;20726;-64
2023/09/26 11:11:35;;;;;;;16.70;15.90;;;;;;;;;;6186281;23;20687;-65
2023/09/26 11:14:04;;;;;;;18.00;16.90;;;;;;;;;;6212606;23;20618;-64
2023/09/26 11:16:32;;;;;;;18.10;17.00;;;;;;;;;;6212795;23;20659;-64
2023/09/26 11:19:01;;;;;;;18.80;17.60;;;;;;;;;;6213493;23;20650;-64
2023/09/26 11:21:31;;;;;;;19.00;17.90;;;;;;;;;;6213121;23;20733;-66
2023/09/26 11:23:59;;;;;;;19.23;17.90;;;;;;;;;;6212552;23;20674;-64
2023/09/26 11:26:28;;;;;;;20.13;19.13;;;;;;;;;;6211925;23;20655;-64
2023/09/26 11:28:57;;;;;;;18.53;17.40;;;;;;;;;;6212894;23;20663;-64
2023/09/26 11:31:28;;;;;;;18.70;17.70;;;;;;;;;;6212820;23;20981;-64
2023/09/26 11:33:57;;;;;;;19.60;18.30;;;;;;;;;;6210377;23;20623;-64
2023/09/26 11:36:25;;;;;;;18.83;17.73;;;;;;;;;;6212273;23;20678;-64
2023/09/26 11:38:55;;;;;;;18.00;17.00;;;;;;;;;;6211462;23;20966;-64
2023/09/26 11:41:23;;;;;;;18.63;17.53;;;;;;;;;;6211314;23;20655;-64
2023/09/26 11:43:52;;;;;;;18.20;17.10;;;;;;;;;;6211278;23;21051;-65
2023/09/26 11:46:21;;;;;;;18.50;17.20;;;;;;;;;;6212306;23;20719;-64
2023/09/26 11:48:49;;;;;;;17.53;16.63;;;;;;;;;;6212437;23;20666;-64
2023/09/26 11:51:17;;;;;;;19.00;17.67;;;;;;;;;;6212708;23;20675;-64
2023/09/26 11:53:45;;;;;;;18.57;17.30;;;;;;;;;;6211827;23;20666;-64
2023/09/26 11:56:15;;;;;;;19.80;18.33;;;;;;;;;;6211466;23;20658;-64
2023/09/26 11:58:45;;;;;;;19.20;17.90;;;;;;;;;;6212212;23;20658;-65
2023/09/26 12:01:13;;;;;;;19.33;17.57;;;;;;;;;;6210521;23;20658;-65
2023/09/26 12:03:42;;;;;;;18.20;17.10;;;;;;;;;;6210541;23;20695;-64
2023/09/26 12:06:11;;;;;;;18.43;17.33;;;;;;;;;;6211159;23;20742;-64
2023/09/26 12:08:39;;;;;;;19.50;18.23;;;;;;;;;;6211395;23;20659;-64
2023/09/26 12:11:08;;;;;;;18.03;17.00;;;;;;;;;;6211502;23;21201;-64
2023/09/26 12:13:37;;;;;;;18.03;17.13;;;;;;;;;;6209409;23;21266;-65
2023/09/26 12:16:06;;;;;;;20.37;19.03;;;;;;;;;;6212375;23;20660;-65
2023/09/26 12:18:34;;;;;;;18.60;17.30;;;;;;;;;;6211585;23;21190;-65
2023/09/26 12:21:04;;;;;;;18.60;17.43;;;;;;;;;;6212189;23;20579;-64
2023/09/26 12:23:32;;;;;;;19.10;17.80;;;;;;;;;;6212168;23;20696;-65
2023/09/26 12:26:00;;;;;;;18.43;17.13;;;;;;;;;;6210884;23;20663;-64
2023/09/26 12:28:28;;;;;;;18.90;17.87;;;;;;;;;;6212091;23;20658;-64
2023/09/26 12:30:58;;;;;;;19.10;18.10;;;;;;;;;;6211821;23;20964;-64
2023/09/26 12:33:26;;;;;;;18.30;17.30;;;;;;;;;;6210723;23;21046;-65
2023/09/26 12:35:56;;;;;;;18.47;17.50;;;;;;;;;;6211983;23;20753;-64
2023/09/26 12:38:24;;;;;;;18.83;17.60;;;;;;;;;;6212109;23;20687;-65
2023/09/26 12:40:52;;;;;;;18.90;17.80;;;;;;;;;;6211361;23;20567;-65
2023/09/26 12:43:20;;;;;;;18.00;17.10;;;;;;;;;;6211972;23;20698;-65
2023/09/26 12:45:49;;;;;;;18.80;17.70;;;;;;;;;;6184615;23;20972;-64
2023/09/26 12:48:18;;;;;;;18.43;17.43;;;;;;;;;;6185707;23;20690;-64
2023/09/26 12:50:47;;;;;;;18.53;17.53;;;;;;;;;;6210724;23;20662;-65
2023/09/26 12:53:15;;;;;;;19.67;18.47;;;;;;;;;;6212234;23;21077;-65
2023/09/26 12:55:43;;;;;;;18.87;17.80;;;;;;;;;;6210560;23;20985;-64
2023/09/26 12:58:12;;;;;;;19.30;17.97;;;;;;;;;;6212631;23;20713;-65
2023/09/26 13:00:40;;;;;;;18.83;17.60;;;;;;;;;;6210643;23;20647;-64
2023/09/26 13:03:08;;;;;;;17.90;17.10;;;;;;;;;;6211502;23;20677;-65
2023/09/26 13:05:38;;;;;;;19.30;18.30;;;;;;;;;;6208956;23;20675;-65
2023/09/26 13:08:06;;;;;;;19.27;17.93;;;;;;;;;;6209833;23;20974;-65
2023/09/26 13:10:35;;;;;;;18.70;17.80;;;;;;;;;;6208202;23;21214;-66
2023/09/26 13:13:03;;;;;;;19.03;17.80;;;;;;;;;;6211022;23;20779;-64
2023/09/26 13:15:31;;;;;;;19.60;18.10;;;;;;;;;;6210581;23;21090;-65
2023/09/26 13:18:00;;;;;;;18.40;17.40;;;;;;;;;;6211545;23;20662;-64
2023/09/26 13:20:28;;;;;;;18.17;17.17;;;;;;;;;;6210971;23;20968;-65
2023/09/26 13:22:57;;;;;;;18.20;17.20;;;;;;;;;;6211912;23;20650;-65
2023/09/26 13:25:26;;;;;;;18.63;17.50;;;;;;;;;;6211427;23;20701;-65
2023/09/26 13:27:54;;;;;;;17.63;16.83;;;;;;;;;;6212381;23;20674;-66
2023/09/26 13:30:22;;;;;;;18.70;17.70;;;;;;;;;;6211322;23;20658;-65
2023/09/26 13:32:50;;;;;;;17.93;16.83;;;;;;;;;;6210366;23;20617;-66
2023/09/26 13:35:19;;;;;;;18.30;17.40;;;;;;;;;;6210173;23;20666;-65
2023/09/26 13:37:47;;;;;;;19.10;18.10;;;;;;;;;;6211011;23;20662;-66
2023/09/26 13:40:17;;;;;;;21.17;19.97;;;;;;;;;;6212393;23;20667;-66
2023/09/26 13:42:45;;;;;;;26.10;24.43;;;;;;;;;;6211500;23;21061;-66
2023/09/26 13:45:13;;;;;;;20.00;18.93;;;;;;;;;;6211862;23;20658;-66
2023/09/26 13:47:41;;;;;;;19.17;18.00;;;;;;;;;;6210586;23;20647;-66
2023/09/26 13:50:10;;;;;;;19.37;17.93;;;;;;;;;;6212085;23;20655;-66
2023/09/26 13:52:38;;;;;;;18.73;17.73;;;;;;;;;;6210855;23;20647;-66
2023/09/26 13:55:07;;;;;;;17.93;17.10;;;;;;;;;;6212747;23;20654;-67
2023/09/26 13:57:37;;;;;;;19.37;18.20;;;;;;;;;;6211823;23;20627;-67
2023/09/26 14:00:07;;;;;;;18.27;17.37;;;;;;;;;;6212388;23;20930;-67
2023/09/26 14:02:40;;;;;;;18.70;17.70;;;;;;;;;;6210391;23;20690;-66
2023/09/26 14:05:08;;;;;;;18.37;17.20;;;;;;;;;;6210886;23;20659;-67
2023/09/26 14:07:36;;;;;;;17.40;16.53;;;;;;;;;;6212011;23;21190;-67
2023/09/26 14:10:05;;;;;;;17.37;16.47;;;;;;;;;;6212961;23;21167;-67
2023/09/26 14:12:33;;;;;;;18.00;17.00;;;;;;;;;;6212944;23;20710;-67
2023/09/26 14:15:03;;;;;;;17.17;16.20;;;;;;;;;;6214122;23;21273;-68
2023/09/26 14:17:32;;;;;;;18.20;17.30;;;;;;;;;;6213966;23;20658;-66
2023/09/26 14:20:00;;;;;;;18.80;17.70;;;;;;;;;;6214341;23;20662;-67
2023/09/26 14:22:28;;;;;;;17.90;16.80;;;;;;;;;;6213303;23;20658;-66
2023/09/26 14:24:57;;;;;;;18.00;16.97;;;;;;;;;;6213805;23;21241;-66
2023/09/26 14:27:25;;;;;;;18.10;17.20;;;;;;;;;;6213623;23;20662;-66
2023/09/26 14:29:54;;;;;;;17.60;16.70;;;;;;;;;;6214083;23;20662;-67
2023/09/26 14:32:23;;;;;;;18.63;17.60;;;;;;;;;;6211124;23;20659;-67
2023/09/26 14:34:51;;;;;;;18.30;17.20;;;;;;;;;;6213404;23;20971;-67
2023/09/26 14:37:20;;;;;;;18.03;17.13;;;;;;;;;;6213498;23;20647;-66
2023/09/26 14:39:48;;;;;;;18.10;17.10;;;;;;;;;;6213187;23;20667;-66
2023/09/26 14:42:16;;;;;;;17.40;16.60;;;;;;;;;;6213937;23;20666;-67